createdAt,value
2017-10-05T00:02:02.487Z,12.05
2017-10-05T00:04:31.571Z,12.02
2017-10-05T00:07:00.618Z,12.03
2017-10-05T00:09:29.658Z,12.04
2017-10-05T00:11:58.855Z,12.07
2017-10-05T00:14:28.043Z,12.12
2017-10-05T00:16:57.075Z,12.22
2017-10-05T00:19:26.110Z,12.18
2017-10-05T00:21:55.209Z,12.21
2017-10-05T00:24:24.283Z,12.24
2017-10-05T00:26:53.316Z,12.23
2017-10-05T00:29:22.364Z,12.22
2017-10-05T00:31:51.423Z,12.25
2017-10-05T00:34:20.450Z,12.28
2017-10-05T00:36:49.494Z,12.26
2017-10-05T00:39:18.541Z,12.27
2017-10-05T00:41:47.584Z,12.25
2017-10-05T00:44:16.643Z,12.24
2017-10-05T00:46:45.674Z,12.33
2017-10-05T00:49:14.716Z,12.39
2017-10-05T00:51:44.759Z,12.46
2017-10-05T00:54:13.823Z,12.46
2017-10-05T00:56:42.866Z,12.45
2017-10-05T00:59:11.926Z,12.44
2017-10-05T01:01:42.014Z,12.45
2017-10-05T01:04:11.044Z,12.44
2017-10-05T01:06:40.110Z,12.47
2017-10-05T01:09:09.130Z,12.48
2017-10-05T01:11:38.242Z,12.49
2017-10-05T01:14:07.294Z,12.54
2017-10-05T01:16:36.326Z,12.51
2017-10-05T01:19:05.374Z,12.48
2017-10-05T01:21:34.406Z,12.54
2017-10-05T01:24:03.450Z,12.55
2017-10-05T01:26:32.514Z,12.55
2017-10-05T01:29:01.577Z,12.56
2017-10-05T01:31:31.415Z,12.54
2017-10-05T01:34:00.480Z,12.58
2017-10-05T01:36:29.514Z,12.57
2017-10-05T01:38:58.556Z,12.51
2017-10-05T01:41:27.602Z,12.48
2017-10-05T01:43:56.670Z,12.47
2017-10-05T01:46:25.743Z,12.52
2017-10-05T01:48:54.774Z,12.51
2017-10-05T01:51:23.834Z,12.53
2017-10-05T01:53:52.871Z,12.51
2017-10-05T01:56:21.907Z,12.53
2017-10-05T01:58:50.969Z,12.56
2017-10-05T02:01:20.030Z,12.59
2017-10-05T02:03:49.070Z,12.58
2017-10-05T02:06:18.130Z,12.56
2017-10-05T02:08:47.151Z,12.54
2017-10-05T02:11:16.203Z,12.55
2017-10-05T02:13:45.284Z,12.55
2017-10-05T02:16:14.450Z,12.55
2017-10-05T02:18:43.486Z,12.53
2017-10-05T02:21:12.536Z,12.55
2017-10-05T02:23:41.591Z,12.57
2017-10-05T02:26:10.623Z,12.58
2017-10-05T02:28:39.665Z,12.61
2017-10-05T02:31:08.719Z,12.67
2017-10-05T02:33:37.766Z,12.68
2017-10-05T02:36:07.717Z,12.61
2017-10-05T02:38:36.760Z,12.55
2017-10-05T02:41:05.803Z,12.62
2017-10-05T02:43:34.865Z,12.66
2017-10-05T02:46:03.908Z,12.62
2017-10-05T02:48:32.991Z,12.58
2017-10-05T02:51:02.037Z,12.59
2017-10-05T02:53:31.082Z,12.56
2017-10-05T02:56:00.129Z,12.59
2017-10-05T02:58:29.166Z,12.54
2017-10-05T03:00:58.214Z,12.55
2017-10-05T03:03:27.353Z,12.54
2017-10-05T03:05:56.406Z,12.57
2017-10-05T03:08:25.482Z,12.57
2017-10-05T03:10:54.539Z,12.56
2017-10-05T03:13:23.603Z,12.55
2017-10-05T03:15:52.634Z,12.45
2017-10-05T03:18:21.694Z,12.34
2017-10-05T03:20:50.729Z,12.28
2017-10-05T03:23:19.779Z,12.24
2017-10-05T03:25:48.820Z,12.15
2017-10-05T03:28:17.858Z,12.14
2017-10-05T03:30:46.902Z,12.13
2017-10-05T03:33:15.942Z,12.06
2017-10-05T03:35:45.143Z,12.15
2017-10-05T03:38:14.207Z,12.25
2017-10-05T03:40:43.243Z,12.34
2017-10-05T03:43:12.316Z,12.25
2017-10-05T03:45:41.362Z,12.20
2017-10-05T03:48:10.524Z,12.24
2017-10-05T03:50:40.552Z,12.39
2017-10-05T03:53:09.619Z,12.37
2017-10-05T03:55:38.700Z,12.35
2017-10-05T03:58:07.749Z,12.32
2017-10-05T04:00:36.778Z,12.47
2017-10-05T04:03:05.827Z,12.40
2017-10-05T04:05:34.870Z,12.42
2017-10-05T04:08:03.922Z,12.52
2017-10-05T04:10:32.950Z,12.45
2017-10-05T04:13:01.999Z,12.53
2017-10-05T04:15:31.046Z,12.50
2017-10-05T04:18:00.095Z,12.53
2017-10-05T04:20:29.163Z,12.60
2017-10-05T04:22:58.202Z,12.61
2017-10-05T04:25:27.250Z,12.67
2017-10-05T04:27:56.299Z,12.62
2017-10-05T04:30:25.341Z,12.60
2017-10-05T04:32:54.383Z,12.59
2017-10-05T04:35:23.435Z,12.55
2017-10-05T04:37:52.512Z,12.49
2017-10-05T04:40:21.558Z,12.42
2017-10-05T04:42:50.582Z,12.51
2017-10-05T04:45:19.631Z,12.65
2017-10-05T04:47:49.484Z,12.71
2017-10-05T04:50:24.308Z,12.77
2017-10-05T04:52:58.746Z,12.70
2017-10-05T04:55:29.364Z,12.53
2017-10-05T04:57:58.999Z,12.63
2017-10-05T05:00:28.310Z,12.57
2017-10-05T05:02:57.357Z,12.59
2017-10-05T05:05:27.190Z,12.51
2017-10-05T05:07:56.249Z,12.48
2017-10-05T05:10:25.298Z,12.38
2017-10-05T05:12:54.370Z,12.34
2017-10-05T05:15:23.419Z,12.35
2017-10-05T05:17:52.477Z,12.36
2017-10-05T05:20:23.506Z,12.37
2017-10-05T05:22:52.574Z,12.40
2017-10-05T05:25:21.616Z,12.45
2017-10-05T05:27:50.681Z,12.54
2017-10-05T05:30:19.732Z,12.61
2017-10-05T05:32:48.766Z,12.56
2017-10-05T05:35:17.878Z,12.61
2017-10-05T05:37:46.915Z,12.59
2017-10-05T05:40:15.951Z,12.40
2017-10-05T05:42:44.998Z,12.42
2017-10-05T05:45:14.044Z,12.48
2017-10-05T05:47:43.172Z,12.55
2017-10-05T05:50:12.214Z,12.49
2017-10-05T05:52:41.265Z,12.48
2017-10-05T05:55:10.353Z,12.44
2017-10-05T05:57:39.391Z,12.33
2017-10-05T06:00:08.459Z,12.35
2017-10-05T06:02:37.513Z,12.43
2017-10-05T06:05:06.608Z,12.48
2017-10-05T06:07:35.694Z,12.56
2017-10-05T06:10:04.827Z,12.62
2017-10-05T06:12:33.848Z,12.67
2017-10-05T06:15:02.904Z,12.73
2017-10-05T06:17:31.978Z,12.83
2017-10-05T06:20:01.018Z,12.88
2017-10-05T06:22:30.075Z,12.96
2017-10-05T06:24:59.127Z,13.06
2017-10-05T06:27:28.180Z,13.11
2017-10-05T06:29:57.212Z,13.12
2017-10-05T06:32:26.269Z,13.19
2017-10-05T06:34:55.314Z,13.26
2017-10-05T06:37:24.473Z,13.35
2017-10-05T06:39:53.540Z,13.43
2017-10-05T06:42:22.570Z,13.43
2017-10-05T06:44:51.647Z,13.51
2017-10-05T06:47:20.689Z,13.65
2017-10-05T06:49:49.728Z,13.73
2017-10-05T06:52:18.771Z,13.84
2017-10-05T06:54:55.570Z,13.91
2017-10-05T06:57:36.317Z,14.02
2017-10-05T07:00:13.134Z,14.12
2017-10-05T07:02:49.640Z,14.18
2017-10-05T07:05:26.401Z,14.28
2017-10-05T07:08:03.075Z,14.37
2017-10-05T07:10:38.667Z,14.54
2017-10-05T07:13:14.002Z,14.65
2017-10-05T07:15:50.239Z,14.74
2017-10-05T07:18:28.115Z,14.82
2017-10-05T07:21:05.893Z,14.93
2017-10-05T07:23:42.110Z,15.05
2017-10-05T07:26:17.938Z,15.18
2017-10-05T07:28:53.787Z,15.27
2017-10-05T07:31:28.531Z,15.41
2017-10-05T07:34:04.194Z,15.56
2017-10-05T07:36:43.002Z,15.77
2017-10-05T07:39:20.937Z,15.92
2017-10-05T07:41:55.857Z,16.04
2017-10-05T07:47:12.883Z,16.39
2017-10-05T07:49:43.070Z,16.58
2017-10-05T07:52:12.155Z,16.80
2017-10-05T07:54:41.190Z,17.04
2017-10-05T07:57:10.295Z,17.08
2017-10-05T07:59:39.346Z,16.96
2017-10-05T08:02:08.396Z,17.07
2017-10-05T08:04:37.444Z,17.22
2017-10-05T08:07:06.491Z,17.06
2017-10-05T08:09:35.563Z,17.14
2017-10-05T08:12:04.607Z,17.12
2017-10-05T08:14:33.646Z,17.09
2017-10-05T08:17:02.702Z,17.07
2017-10-05T08:19:31.742Z,17.07
2017-10-05T08:22:00.783Z,17.08
2017-10-05T08:24:29.841Z,17.14
2017-10-05T08:26:58.878Z,17.25
2017-10-05T08:29:27.996Z,17.29
2017-10-05T08:31:57.034Z,17.36
2017-10-05T08:34:26.078Z,17.47
2017-10-05T08:36:55.153Z,17.56
2017-10-05T08:39:24.211Z,17.72
2017-10-05T08:41:53.239Z,17.82
2017-10-05T08:44:22.296Z,17.97
2017-10-05T08:46:51.322Z,18.22
2017-10-05T08:49:20.381Z,19.04
2017-10-05T08:51:49.430Z,19.99
2017-10-05T08:54:18.466Z,20.09
2017-10-05T08:56:47.506Z,20.88
2017-10-05T08:59:16.586Z,21.33
2017-10-05T09:01:45.651Z,21.26
2017-10-05T09:04:14.679Z,21.27
2017-10-05T09:06:43.718Z,21.28
2017-10-05T09:09:12.779Z,21.13
2017-10-05T09:11:41.907Z,21.27
2017-10-05T09:14:10.935Z,21.25
2017-10-05T09:16:39.966Z,21.55
2017-10-05T09:19:09.018Z,21.10
2017-10-05T09:21:38.098Z,20.72
2017-10-05T09:24:07.146Z,21.27
2017-10-05T09:26:36.189Z,21.29
2017-10-05T09:29:05.240Z,21.46
2017-10-05T09:31:34.285Z,21.36
2017-10-05T09:34:03.342Z,21.27
2017-10-05T09:36:32.398Z,21.14
2017-10-05T09:39:01.476Z,21.56
2017-10-05T09:41:30.532Z,21.48
2017-10-05T09:43:59.584Z,21.67
2017-10-05T09:46:28.630Z,22.19
2017-10-05T09:48:57.678Z,22.65
2017-10-05T09:51:26.732Z,22.68
2017-10-05T09:53:55.775Z,22.45
2017-10-05T09:56:24.806Z,22.74
2017-10-05T09:58:53.988Z,22.76
2017-10-05T10:01:23.035Z,22.57
2017-10-05T10:03:52.083Z,22.76
2017-10-05T10:06:21.139Z,22.96
2017-10-05T10:08:50.183Z,23.18
2017-10-05T10:11:19.227Z,22.43
2017-10-05T10:13:48.267Z,22.74
2017-10-05T10:16:17.313Z,22.64
2017-10-05T10:18:46.363Z,22.74
2017-10-05T10:21:15.412Z,23.33
2017-10-05T10:23:44.455Z,23.50
2017-10-05T10:26:13.515Z,23.55
2017-10-05T10:28:42.614Z,23.82
2017-10-05T10:31:11.697Z,23.27
2017-10-05T10:33:40.730Z,23.41
2017-10-05T10:36:09.770Z,23.03
2017-10-05T10:38:38.819Z,23.19
2017-10-05T10:41:07.869Z,23.61
2017-10-05T10:43:36.938Z,23.81
2017-10-05T10:46:05.973Z,23.71
2017-10-05T10:48:35.025Z,23.24
2017-10-05T10:51:04.063Z,23.50
2017-10-05T10:53:33.102Z,24.00
2017-10-05T10:56:02.165Z,24.13
2017-10-05T10:58:31.236Z,23.50
2017-10-05T11:01:00.298Z,23.42
2017-10-05T11:03:29.330Z,23.57
2017-10-05T11:05:58.391Z,23.54
2017-10-05T11:08:27.474Z,23.42
2017-10-05T11:10:56.531Z,23.83
2017-10-05T11:13:25.586Z,24.15
2017-10-05T11:15:54.656Z,24.41
2017-10-05T11:18:23.822Z,24.24
2017-10-05T11:20:52.902Z,23.97
2017-10-05T11:23:21.942Z,24.34
2017-10-05T11:25:51.003Z,24.16
2017-10-05T11:28:20.052Z,24.06
2017-10-05T11:30:49.095Z,24.25
2017-10-05T11:33:18.171Z,23.63
2017-10-05T11:35:47.206Z,23.41
2017-10-05T11:38:16.239Z,23.35
2017-10-05T11:40:45.305Z,23.56
2017-10-05T11:43:14.330Z,23.84
2017-10-05T11:45:43.383Z,24.32
2017-10-05T11:48:12.426Z,23.76
2017-10-05T11:50:41.479Z,23.78
2017-10-05T11:53:10.581Z,23.78
2017-10-05T11:55:39.634Z,23.90
2017-10-05T11:58:08.682Z,23.95
2017-10-05T12:00:38.747Z,24.55
2017-10-05T12:03:08.075Z,23.96
2017-10-05T12:05:37.123Z,24.23
2017-10-05T12:08:06.171Z,24.02
2017-10-05T12:10:35.259Z,24.66
2017-10-05T12:13:04.290Z,24.88
2017-10-05T12:15:33.328Z,24.39
2017-10-05T12:18:02.382Z,24.08
2017-10-05T12:20:31.500Z,24.26
2017-10-05T12:23:00.636Z,24.40
2017-10-05T12:25:29.683Z,24.42
2017-10-05T12:27:58.735Z,25.48
2017-10-05T12:30:27.834Z,24.94
2017-10-05T12:32:56.916Z,24.46
2017-10-05T12:35:25.987Z,22.91
2017-10-05T12:37:55.037Z,22.49
2017-10-05T12:40:24.177Z,23.30
2017-10-05T12:42:53.216Z,23.65
2017-10-05T12:45:22.242Z,23.35
2017-10-05T12:47:51.283Z,22.96
2017-10-05T12:50:20.334Z,22.54
2017-10-05T12:52:49.412Z,21.90
2017-10-05T12:55:18.458Z,21.29
2017-10-05T12:57:47.577Z,21.95
2017-10-05T13:00:16.626Z,23.39
2017-10-05T13:02:45.674Z,22.60
2017-10-05T13:05:14.722Z,23.38
2017-10-05T13:07:43.788Z,24.15
2017-10-05T13:10:12.877Z,24.68
2017-10-05T13:12:41.922Z,24.37
2017-10-05T13:15:11.013Z,24.16
2017-10-05T13:17:40.062Z,24.29
2017-10-05T13:20:10.287Z,23.39
2017-10-05T13:22:39.323Z,23.95
2017-10-05T13:25:08.371Z,24.06
2017-10-05T13:27:37.610Z,23.81
2017-10-05T13:30:06.714Z,24.11
2017-10-05T13:32:35.763Z,24.13
2017-10-05T13:35:04.793Z,24.15
2017-10-05T13:37:33.848Z,24.01
2017-10-05T13:40:03.962Z,23.81
2017-10-05T13:42:33.036Z,24.09
2017-10-05T13:45:02.062Z,24.30
2017-10-05T13:47:31.117Z,23.08
2017-10-05T13:50:00.154Z,22.60
2017-10-05T13:52:29.234Z,23.33
2017-10-05T13:54:58.302Z,22.89
2017-10-05T13:57:27.355Z,21.84
2017-10-05T13:59:56.398Z,22.30
2017-10-05T14:02:25.690Z,23.16
2017-10-05T14:04:54.744Z,22.88
2017-10-05T14:07:24.385Z,23.29
2017-10-05T14:09:53.442Z,22.80
2017-10-05T14:12:22.498Z,23.33
2017-10-05T14:14:51.566Z,24.22
2017-10-05T14:17:21.812Z,23.93
2017-10-05T14:19:50.859Z,24.07
2017-10-05T14:22:19.902Z,24.42
2017-10-05T14:24:48.962Z,23.79
2017-10-05T14:27:18.002Z,23.49
2017-10-05T14:29:47.050Z,23.59
2017-10-05T14:32:16.087Z,23.69
2017-10-05T14:34:45.139Z,23.78
2017-10-05T14:37:14.186Z,24.19
2017-10-05T14:39:44.298Z,23.27
2017-10-05T14:42:13.313Z,23.19
2017-10-05T14:44:42.393Z,23.32
2017-10-05T14:47:11.439Z,23.21
2017-10-05T14:49:40.487Z,22.79
2017-10-05T14:52:09.550Z,22.98
2017-10-05T14:54:38.590Z,22.51
2017-10-05T14:57:07.676Z,22.44
2017-10-05T14:59:36.750Z,22.53
2017-10-05T15:02:05.771Z,22.21
2017-10-05T15:04:34.810Z,21.50
2017-10-05T15:07:03.860Z,21.07
2017-10-05T15:09:32.911Z,20.69
2017-10-05T15:12:01.967Z,20.45
2017-10-05T15:14:31.145Z,20.37
2017-10-05T15:17:00.240Z,20.32
2017-10-05T15:19:29.274Z,20.22
2017-10-05T15:21:58.332Z,20.00
2017-10-05T15:24:27.421Z,19.95
2017-10-05T15:26:56.494Z,19.83
2017-10-05T15:29:25.553Z,19.81
2017-10-05T15:31:54.597Z,19.75
2017-10-05T15:34:23.655Z,19.63
2017-10-05T15:36:52.729Z,19.64
2017-10-05T15:39:22.447Z,19.56
2017-10-05T15:41:51.510Z,19.48
2017-10-05T15:44:20.551Z,19.41
2017-10-05T15:46:49.607Z,19.46
2017-10-05T15:49:18.692Z,19.23
2017-10-05T15:51:47.771Z,19.08
2017-10-05T15:54:16.797Z,18.87
2017-10-05T15:56:45.846Z,18.52
2017-10-05T15:59:16.660Z,18.22
2017-10-05T16:01:45.694Z,17.90
2017-10-05T16:04:14.941Z,18.06
2017-10-05T16:06:44.334Z,18.05
2017-10-05T16:09:15.543Z,17.53
2017-10-05T16:11:45.721Z,17.25
2017-10-05T16:14:14.780Z,17.25
2017-10-05T16:16:43.835Z,17.12
2017-10-05T16:19:12.892Z,17.22
2017-10-05T16:21:41.952Z,17.30
2017-10-05T16:24:11.003Z,17.38
2017-10-05T16:26:40.046Z,17.59
2017-10-05T16:29:09.093Z,17.60
2017-10-05T16:31:38.144Z,17.60
2017-10-05T16:34:07.182Z,17.45
2017-10-05T16:36:36.255Z,17.46
2017-10-05T16:39:05.304Z,17.43
2017-10-05T16:41:34.490Z,17.50
2017-10-05T16:44:03.552Z,17.50
2017-10-05T16:46:32.589Z,17.54
2017-10-05T16:49:01.659Z,17.51
2017-10-05T16:51:30.737Z,17.48
2017-10-05T16:53:59.766Z,17.47
2017-10-05T16:56:28.818Z,17.51
2017-10-05T16:58:57.929Z,17.51
2017-10-05T17:01:27.001Z,17.51
2017-10-05T17:03:56.050Z,17.43
2017-10-05T17:06:25.404Z,17.41
2017-10-05T17:08:54.923Z,17.33
2017-10-05T17:11:24.018Z,17.29
2017-10-05T17:13:53.435Z,17.18
2017-10-05T17:16:22.487Z,17.17
2017-10-05T17:18:51.710Z,17.11
2017-10-05T17:21:20.905Z,17.09
2017-10-05T17:23:49.942Z,17.09
2017-10-05T17:26:19.094Z,17.08
2017-10-05T17:28:48.125Z,16.99
2017-10-05T17:31:17.543Z,16.82
2017-10-05T17:33:47.494Z,16.78
2017-10-05T17:36:16.542Z,16.72
2017-10-05T17:38:45.583Z,16.75
2017-10-05T17:41:14.629Z,16.70
2017-10-05T17:43:44.254Z,16.63
2017-10-05T17:46:13.331Z,16.62
2017-10-05T17:48:42.390Z,16.50
2017-10-05T17:51:11.465Z,16.46
2017-10-05T17:53:40.529Z,16.37
2017-10-05T17:56:09.654Z,16.24
2017-10-05T17:58:38.679Z,15.86
2017-10-05T18:01:07.776Z,15.47
2017-10-05T18:03:36.827Z,15.09
2017-10-05T18:06:05.981Z,14.89
2017-10-05T18:08:35.194Z,14.54
2017-10-05T18:11:04.293Z,13.76
2017-10-05T18:13:33.393Z,13.24
2017-10-05T18:16:02.434Z,12.86
2017-10-05T18:18:31.487Z,12.58
2017-10-05T18:21:00.538Z,12.49
2017-10-05T18:23:32.689Z,12.40
2017-10-05T18:26:01.795Z,12.39
2017-10-05T18:28:30.963Z,12.24
2017-10-05T18:31:00.247Z,12.21
2017-10-05T18:33:29.449Z,12.20
2017-10-05T18:35:58.538Z,12.14
2017-10-05T18:38:27.712Z,12.09
2017-10-05T18:40:57.020Z,12.10
2017-10-05T18:43:26.404Z,12.16
2017-10-05T18:45:55.451Z,12.08
2017-10-05T18:48:24.595Z,12.09
2017-10-05T18:50:53.635Z,12.07
2017-10-05T18:53:22.680Z,12.04
2017-10-05T18:55:51.729Z,12.10
2017-10-05T18:58:20.882Z,12.12
2017-10-05T19:00:49.954Z,12.12
2017-10-05T19:03:18.998Z,12.11
2017-10-05T19:05:48.069Z,12.10
2017-10-05T19:08:17.274Z,12.12
2017-10-05T19:10:46.343Z,12.11
2017-10-05T19:13:15.391Z,12.13
2017-10-05T19:15:44.482Z,12.14
2017-10-05T19:18:13.591Z,12.17
2017-10-05T19:20:42.675Z,12.20
2017-10-05T19:23:12.552Z,12.28
2017-10-05T19:25:41.743Z,12.30
2017-10-05T19:28:10.880Z,11.75
2017-10-05T19:30:39.961Z,10.96
2017-10-05T19:33:09.022Z,10.43
2017-10-05T19:35:38.072Z,10.22
2017-10-05T19:38:07.116Z,10.13
2017-10-05T19:40:41.846Z,10.05
2017-10-05T19:43:16.956Z,9.98
2017-10-05T19:45:51.212Z,9.97
2017-10-05T19:48:20.763Z,10.01
2017-10-05T19:50:49.800Z,9.96
2017-10-05T19:53:18.947Z,9.93
2017-10-05T19:55:48.097Z,9.93
2017-10-05T19:58:17.172Z,9.89
2017-10-05T20:00:46.204Z,9.90
2017-10-05T20:03:15.247Z,9.92
2017-10-05T20:05:44.371Z,9.94
2017-10-05T20:08:13.475Z,9.94
2017-10-05T20:10:42.523Z,9.88
2017-10-05T20:13:12.162Z,9.84
2017-10-05T20:15:41.196Z,9.80
2017-10-05T20:18:12.667Z,9.80
2017-10-05T20:20:47.212Z,9.74
2017-10-05T20:26:24.780Z,9.77
2017-10-05T20:29:00.851Z,9.70
2017-10-05T20:34:24.477Z,9.71
2017-10-05T20:36:53.516Z,9.73
2017-10-05T20:39:22.561Z,9.64
2017-10-05T20:41:52.522Z,9.54
2017-10-05T20:44:21.603Z,9.54
2017-10-05T20:46:50.705Z,9.57
2017-10-05T20:49:19.752Z,9.56
2017-10-05T20:51:48.787Z,9.61
2017-10-05T20:54:19.691Z,9.62
2017-10-05T20:56:48.735Z,9.59
2017-10-05T20:59:17.985Z,9.59
2017-10-05T21:01:47.136Z,9.56
2017-10-05T21:04:17.159Z,9.50
2017-10-05T21:06:46.180Z,9.52
2017-10-05T21:09:16.778Z,9.45
2017-10-05T21:11:47.903Z,9.42
2017-10-05T21:14:17.689Z,9.51
2017-10-05T21:16:46.770Z,9.54
2017-10-05T21:19:15.851Z,9.49
2017-10-05T21:21:44.895Z,9.53
2017-10-05T21:24:13.933Z,9.45
2017-10-05T21:26:43.521Z,9.40
2017-10-05T21:29:13.118Z,9.39
2017-10-05T21:31:42.887Z,9.39
2017-10-05T21:34:12.490Z,9.43
2017-10-05T21:36:43.075Z,9.41
2017-10-05T21:39:12.115Z,9.39
2017-10-05T21:41:41.183Z,9.34
2017-10-05T21:44:10.279Z,9.36
2017-10-05T21:46:39.313Z,9.35
2017-10-05T21:49:08.353Z,9.38
2017-10-05T21:51:37.390Z,9.39
2017-10-05T21:54:06.432Z,9.40
2017-10-05T21:56:41.308Z,9.44
2017-10-05T21:59:16.758Z,9.46
2017-10-05T22:01:46.358Z,9.41
2017-10-05T22:04:15.402Z,9.42
2017-10-05T22:06:44.466Z,9.38
2017-10-05T22:09:13.499Z,9.46
2017-10-05T22:11:42.555Z,9.48
2017-10-05T22:14:11.627Z,9.47
2017-10-05T22:16:40.661Z,9.49
2017-10-05T22:19:09.701Z,9.54
2017-10-05T22:21:38.742Z,9.51
2017-10-05T22:24:07.825Z,9.52
2017-10-05T22:26:36.863Z,9.52
2017-10-05T22:29:05.899Z,9.55
2017-10-05T22:31:34.971Z,9.54
2017-10-05T22:34:03.991Z,9.49
2017-10-05T22:36:33.031Z,9.45
2017-10-05T22:39:02.283Z,9.34
2017-10-05T22:41:31.342Z,9.34
2017-10-05T22:44:00.382Z,9.31
2017-10-05T22:46:29.432Z,9.31
2017-10-05T22:48:58.483Z,9.27
2017-10-05T22:51:27.532Z,9.35
2017-10-05T22:53:56.585Z,9.31
2017-10-05T22:56:25.926Z,9.31
2017-10-05T22:58:54.967Z,9.33
2017-10-05T23:01:24.007Z,9.38
2017-10-05T23:03:53.093Z,9.36
2017-10-05T23:06:22.126Z,9.28
2017-10-05T23:08:51.379Z,9.18
2017-10-05T23:11:21.402Z,9.08
2017-10-05T23:13:50.462Z,9.08
2017-10-05T23:16:19.500Z,9.10
2017-10-05T23:18:48.547Z,9.08
2017-10-05T23:21:17.623Z,9.16
2017-10-05T23:23:46.693Z,9.18
2017-10-05T23:26:15.722Z,9.12
2017-10-05T23:28:44.763Z,9.05
2017-10-05T23:31:13.803Z,9.06
2017-10-05T23:33:42.866Z,9.13
2017-10-05T23:36:11.906Z,9.12
2017-10-05T23:38:40.939Z,9.12
2017-10-05T23:41:09.992Z,9.23
2017-10-05T23:43:39.036Z,9.39
2017-10-05T23:46:08.109Z,9.30
2017-10-05T23:48:37.160Z,9.22
2017-10-05T23:51:06.191Z,9.13
2017-10-05T23:53:35.243Z,9.08
2017-10-05T23:56:04.277Z,9.07
2017-10-05T23:58:33.365Z,9.06
